Time;durP1;ratioP1;P1;durP2;ratioP2;P2;SDS_P1;SDS_P2;PMS_P1;PMS_P2;Temp;Humidity;BMP_temperature;BMP_pressure;BME280_temperature;BME280_humidity;BME280_pressure;Samples;Min_cycle;Max_cycle;Signal;HPM_P1;HPM_P2
2022/05/26 00:01:19;;;;;;;10.98;4.13;;;;;;;12.94;100.00;101447.19;5013134;28;20392;-76
2022/05/26 00:03:46;;;;;;;11.00;4.00;;;;;;;12.90;100.00;101446.47;5006329;28;20032;-77
2022/05/26 00:06:14;;;;;;;12.98;3.70;;;;;;;12.87;100.00;101444.81;5033294;28;20037;-77
2022/05/26 00:08:40;;;;;;;14.93;3.70;;;;;;;12.84;100.00;101452.94;5024890;28;20020;-78
2022/05/26 00:11:09;;;;;;;9.73;3.63;;;;;;;12.82;100.00;101445.97;4995750;28;20039;-77
2022/05/26 00:13:36;;;;;;;10.73;3.60;;;;;;;12.78;100.00;101458.53;5011223;28;20909;-77
2022/05/26 00:16:02;;;;;;;11.45;3.47;;;;;;;12.75;100.00;101456.88;5029473;28;20198;-77
2022/05/26 00:18:28;;;;;;;13.95;3.45;;;;;;;12.71;100.00;101446.47;5009780;28;20715;-76
2022/05/26 00:20:54;;;;;;;10.82;3.40;;;;;;;12.70;100.00;101452.72;5011647;28;20042;-78
2022/05/26 00:23:19;;;;;;;14.27;4.53;;;;;;;12.67;100.00;101452.81;5004962;28;20033;-77
2022/05/26 00:25:45;;;;;;;13.00;3.30;;;;;;;12.66;100.00;101461.72;5010906;28;20041;-76
2022/05/26 00:28:11;;;;;;;15.13;3.78;;;;;;;12.63;100.00;101463.59;5006962;28;20508;-78
2022/05/26 00:30:37;;;;;;;12.20;3.47;;;;;;;12.63;100.00;101462.72;5012773;28;20140;-77
2022/05/26 00:33:04;;;;;;;10.77;3.78;;;;;;;12.62;100.00;101466.31;5010345;28;20566;-76
2022/05/26 00:35:29;;;;;;;12.77;3.97;;;;;;;12.60;100.00;101463.72;5012358;28;20484;-77
2022/05/26 00:37:55;;;;;;;12.55;3.85;;;;;;;12.60;100.00;101466.38;5028722;28;20357;-77
2022/05/26 00:40:20;;;;;;;10.57;3.38;;;;;;;12.59;100.00;101462.00;5010959;28;20169;-77
2022/05/26 00:42:46;;;;;;;17.13;3.58;;;;;;;12.59;100.00;101467.31;5025836;28;20025;-76
2022/05/26 00:45:11;;;;;;;13.10;3.65;;;;;;;12.59;100.00;101477.94;5008510;28;20129;-77
2022/05/26 00:47:43;;;;;;;16.63;3.92;;;;;;;12.58;100.00;101468.25;5006565;28;20033;-77
2022/05/26 00:50:20;;;;;;;14.15;3.88;;;;;;;12.58;100.00;101465.59;5010201;28;20362;-76
2022/05/26 00:52:52;;;;;;;14.90;3.33;;;;;;;12.59;100.00;101477.09;5010656;28;20029;-77
2022/05/26 00:55:29;;;;;;;11.32;3.38;;;;;;;12.60;100.00;101482.31;4993400;28;21458;-76
2022/05/26 00:57:58;;;;;;;14.60;3.65;;;;;;;12.62;100.00;101484.91;5009933;28;20029;-77
2022/05/26 01:00:27;;;;;;;12.45;3.78;;;;;;;12.63;100.00;101479.53;5027252;28;20037;-77
2022/05/26 01:03:09;;;;;;;14.63;3.85;;;;;;;12.63;100.00;101474.22;4991985;28;20792;-77
2022/05/26 01:05:39;;;;;;;18.40;4.17;;;;;;;12.65;100.00;101482.16;4994596;28;20404;-77
2022/05/26 01:08:12;;;;;;;11.77;3.80;;;;;;;12.63;100.00;101479.53;5000769;28;20091;-78
2022/05/26 01:10:37;;;;;;;13.35;4.00;;;;;;;12.65;100.00;101487.47;4997158;28;20252;-77
2022/05/26 01:13:03;;;;;;;15.25;3.40;;;;;;;12.65;100.00;101486.56;5002875;28;20087;-76
2022/05/26 01:15:32;;;;;;;16.10;3.70;;;;;;;12.65;100.00;101486.56;5009558;28;20047;-77
2022/05/26 01:18:12;;;;;;;16.45;2.75;;;;;;;12.65;100.00;101481.25;5020384;28;20048;-77
2022/05/26 01:20:53;;;;;;;12.90;3.20;;;;;;;12.62;100.00;101483.13;5028851;28;20132;-78
2022/05/26 01:23:33;;;;;;;11.80;3.25;;;;;;;12.63;100.00;101492.81;5028605;28;20052;-76
2022/05/26 01:26:24;;;;;;;15.70;3.40;;;;;;;12.63;100.00;101492.81;5030721;28;20043;-78
2022/05/26 01:29:27;;;;;;;8.25;3.03;;;;;;;12.65;100.00;101497.19;5028897;28;20102;-76
2022/05/26 01:32:20;;;;;;;10.90;3.13;;;;;;;12.64;100.00;101491.00;5030247;28;20049;-78
2022/05/26 01:35:07;;;;;;;14.88;3.83;;;;;;;12.63;100.00;101503.44;5030550;28;20043;-77
2022/05/26 01:37:39;;;;;;;14.13;3.75;;;;;;;12.63;100.00;101514.06;5028267;28;20135;-76
2022/05/26 01:40:28;;;;;;;;;;;;;;;12.64;100.00;101512.25;5013469;28;20067;-78
2022/05/26 01:43:19;;;;;;;12.48;2.75;;;;;;;12.64;100.00;101517.56;5031591;28;19925;-76
2022/05/26 01:45:50;;;;;;;11.15;2.88;;;;;;;12.62;100.00;101517.66;5021962;28;20059;-76
2022/05/26 01:48:28;;;;;;;8.50;2.92;;;;;;;12.65;100.00;101518.44;5011384;28;20035;-77
2022/05/26 01:51:17;;;;;;;10.88;3.13;;;;;;;12.64;100.00;101517.56;5031545;28;20045;-77
2022/05/26 01:53:52;;;;;;;8.10;2.78;;;;;;;12.65;100.00;101519.34;5006832;28;20420;-76
2022/05/26 01:56:44;;;;;;;4.88;2.53;;;;;;;12.68;100.00;101521.00;5022374;28;20025;-75
2022/05/26 01:59:13;;;;;;;8.98;1.90;;;;;;;12.67;100.00;101512.16;5029631;28;20561;-76
2022/05/26 02:01:41;;;;;;;6.60;2.17;;;;;;;12.69;100.00;101522.72;5011946;28;20032;-77
2022/05/26 02:04:11;;;;;;;8.27;2.47;;;;;;;12.69;100.00;101526.22;5013949;28;20040;-76
2022/05/26 02:06:41;;;;;;;6.32;1.98;;;;;;;12.68;100.00;101528.97;5011837;28;20040;-77
2022/05/26 02:09:09;;;;;;;3.80;1.90;;;;;;;12.68;100.00;101542.25;5026786;28;20040;-76
2022/05/26 02:11:38;;;;;;;6.85;2.28;;;;;;;12.65;100.00;101539.69;5021321;28;20119;-76
2022/05/26 02:14:17;;;;;;;4.55;1.63;;;;;;;12.63;100.00;101545.06;4978167;28;20567;-76
2022/05/26 02:16:49;;;;;;;6.75;2.05;;;;;;;12.60;100.00;101543.41;5023604;28;20530;-76
2022/05/26 02:19:44;;;;;;;2.50;1.08;;;;;;;12.58;100.00;101533.81;5013152;28;20167;-76
2022/05/26 02:22:28;;;;;;;4.75;1.60;;;;;;;12.56;100.00;101547.16;5013276;28;20051;-77
2022/05/26 02:24:58;;;;;;;2.83;1.27;;;;;;;12.51;100.00;101551.78;5030326;28;20041;-77
2022/05/26 02:27:26;;;;;;;2.65;1.60;;;;;;;12.49;100.00;101551.00;5028679;28;20036;-77
2022/05/26 02:29:52;;;;;;;4.07;1.40;;;;;;;12.46;100.00;101557.28;5001881;28;20036;-76
2022/05/26 02:32:21;;;;;;;4.63;1.60;;;;;;;12.44;100.00;101563.59;5012108;28;20028;-77
2022/05/26 02:34:48;;;;;;;2.92;1.20;;;;;;;12.40;100.00;101568.16;5010589;28;20040;-78
2022/05/26 02:37:14;;;;;;;3.85;1.08;;;;;;;12.38;100.00;101563.84;5003369;28;20091;-77
2022/05/26 02:39:40;;;;;;;3.63;1.20;;;;;;;12.36;100.00;101578.06;5029671;28;20037;-77
2022/05/26 02:42:06;;;;;;;4.35;1.75;;;;;;;12.34;100.00;101571.06;5032569;28;20043;-77
2022/05/26 02:44:33;;;;;;;3.67;1.10;;;;;;;12.30;100.00;101567.69;5029324;28;20029;-77
2022/05/26 02:47:26;;;;;;;2.25;1.20;;;;;;;12.27;100.00;101562.53;5028579;28;20033;-77
2022/05/26 02:50:00;;;;;;;3.97;1.23;;;;;;;12.21;100.00;101568.06;4999280;28;20044;-77
2022/05/26 02:52:39;;;;;;;4.75;1.30;;;;;;;12.15;100.00;101569.16;5015090;28;20021;-78
2022/05/26 02:55:31;;;;;;;3.60;1.48;;;;;;;12.12;100.00;101581.69;5021804;28;20039;-78
2022/05/26 02:58:13;;;;;;;2.22;1.25;;;;;;;12.04;100.00;101577.56;5028778;28;20550;-78
2022/05/26 03:00:49;;;;;;;2.25;1.38;;;;;;;12.01;100.00;101582.97;5014342;28;20040;-78
2022/05/26 03:03:22;;;;;;;4.95;1.27;;;;;;;11.98;100.00;101584.88;4998421;28;20067;-77
2022/05/26 03:05:51;;;;;;;2.00;1.15;;;;;;;11.94;100.00;101576.19;5030128;28;20554;-78
2022/05/26 03:08:19;;;;;;;2.08;1.05;;;;;;;11.90;100.00;101585.19;5030433;28;20040;-76
2022/05/26 03:10:53;;;;;;;4.97;1.27;;;;;;;11.86;100.00;101592.41;5011255;28;20040;-77
2022/05/26 03:13:19;;;;;;;2.67;1.20;;;;;;;11.82;100.00;101594.31;5014369;28;20033;-77
2022/05/26 03:15:44;;;;;;;3.20;1.27;;;;;;;11.77;100.00;101593.59;5011850;28;20190;-76
2022/05/26 03:18:10;;;;;;;4.65;1.10;;;;;;;11.75;100.00;101584.84;5006915;28;20428;-77
2022/05/26 03:20:36;;;;;;;1.90;1.30;;;;;;;11.70;100.00;101584.16;5010001;28;20757;-76
2022/05/26 03:23:02;;;;;;;2.40;0.82;;;;;;;11.65;100.00;101587.00;5018760;28;20040;-77
2022/05/26 03:25:28;;;;;;;4.60;1.10;;;;;;;11.62;100.00;101588.91;4994339;28;20029;-77
2022/05/26 03:27:53;;;;;;;2.67;1.20;;;;;;;11.60;100.00;101590.75;5014045;28;20197;-77
2022/05/26 03:30:19;;;;;;;1.35;0.90;;;;;;;11.56;100.00;101590.00;5011506;28;20112;-77
2022/05/26 03:32:46;;;;;;;3.13;1.00;;;;;;;11.53;100.00;101593.63;5009706;28;20071;-77
2022/05/26 03:43:17;;;;;;;2.05;1.10;;;;;;;11.50;100.00;101604.34;5024772;28;20103;-77
2022/05/26 03:45:43;;;;;;;4.05;1.08;;;;;;;11.49;100.00;101607.91;5009373;28;20046;-78
2022/05/26 03:48:09;;;;;;;3.83;1.23;;;;;;;11.50;100.00;101614.94;5009566;28;20049;-78
2022/05/26 03:50:35;;;;;;;3.22;1.25;;;;;;;11.49;100.00;101607.91;5008816;28;20059;-77
2022/05/26 03:53:01;;;;;;;5.50;1.10;;;;;;;11.50;100.00;101612.28;5012955;28;20025;-78
2022/05/26 03:55:26;;;;;;;2.17;0.90;;;;;;;11.53;100.00;101616.63;5008643;28;20153;-77
2022/05/26 03:57:52;;;;;;;2.05;0.90;;;;;;;11.55;100.00;101609.47;5016933;28;20544;-77
2022/05/26 04:00:21;;;;;;;1.27;0.75;;;;;;;11.59;100.00;101619.06;5010019;28;20029;-77
2022/05/26 04:02:47;;;;;;;4.78;0.95;;;;;;;11.65;100.00;101620.59;5019674;28;20029;-77
2022/05/26 04:05:13;;;;;;;1.98;1.17;;;;;;;11.68;100.00;101625.81;5012150;28;20041;-77
2022/05/26 04:07:39;;;;;;;3.78;0.80;;;;;;;11.71;100.00;101633.63;5014386;28;22073;-77
2022/05/26 04:10:07;;;;;;;3.25;1.20;;;;;;;11.71;100.00;101633.63;5011185;28;20043;-78
2022/05/26 04:12:33;;;;;;;2.38;0.88;;;;;;;11.71;100.00;101633.63;5012029;28;20120;-78
2022/05/26 04:15:02;;;;;;;0.95;0.70;;;;;;;11.69;100.00;101635.50;5010859;28;20520;-78
2022/05/26 04:17:29;;;;;;;3.20;1.10;;;;;;;11.68;100.00;101636.41;4996898;28;20404;-77
2022/05/26 04:19:55;;;;;;;2.50;1.00;;;;;;;11.65;100.00;101644.47;5015888;28;20033;-77
2022/05/26 04:22:23;;;;;;;2.47;1.02;;;;;;;11.66;100.00;101646.22;5017329;28;20044;-77
2022/05/26 04:24:53;;;;;;;3.10;0.80;;;;;;;11.64;100.00;101643.63;5033854;28;20073;-77
2022/05/26 04:27:20;;;;;;;1.30;1.05;;;;;;;11.65;100.00;101649.78;5006751;28;20647;-78
2022/05/26 04:29:46;;;;;;;3.08;1.00;;;;;;;11.65;100.00;101649.78;5026355;28;20044;-77
2022/05/26 04:32:12;;;;;;;1.70;1.00;;;;;;;11.66;100.00;101648.88;5016672;28;20033;-77
2022/05/26 04:34:38;;;;;;;2.55;0.95;;;;;;;11.68;100.00;101652.31;5000899;28;20041;-77
2022/05/26 04:37:04;;;;;;;3.03;0.80;;;;;;;11.69;100.00;101654.06;5001480;28;20147;-77
2022/05/26 04:39:30;;;;;;;1.45;0.80;;;;;;;11.71;100.00;101654.00;5034100;28;20025;-77
2022/05/26 04:42:00;;;;;;;2.70;0.80;;;;;;;11.73;100.00;101647.72;5016514;28;20028;-77
2022/05/26 04:44:30;;;;;;;2.92;0.80;;;;;;;11.76;100.00;101657.34;5025131;28;20076;-77
2022/05/26 04:46:55;;;;;;;0.73;0.63;;;;;;;11.80;100.00;101667.78;4997535;28;20648;-78
2022/05/26 04:49:21;;;;;;;1.90;0.90;;;;;;;11.81;100.00;101672.16;5017402;28;20033;-77
2022/05/26 04:51:46;;;;;;;2.22;0.77;;;;;;;11.86;100.00;101665.81;5029791;28;20075;-78
2022/05/26 04:54:12;;;;;;;0.73;0.70;;;;;;;11.90;100.00;101670.09;5033216;28;20029;-78
2022/05/26 04:56:38;;;;;;;1.63;0.95;;;;;;;11.95;100.00;101684.06;5034692;28;20040;-78
2022/05/26 04:59:05;;;;;;;2.70;0.80;;;;;;;12.01;100.00;101677.63;5030817;28;20348;-78
2022/05/26 05:01:31;;;;;;;1.77;0.80;;;;;;;12.06;100.00;101676.59;5033762;28;20058;-77
2022/05/26 05:03:56;;;;;;;3.22;1.00;;;;;;;12.13;100.00;101678.97;5033923;28;20033;-77
2022/05/26 05:06:22;;;;;;;1.42;0.98;;;;;;;12.20;100.00;101683.16;5031281;28;20112;-78
2022/05/26 05:08:47;;;;;;;1.42;0.90;;;;;;;12.28;100.00;101685.50;5033242;28;20411;-78
2022/05/26 05:11:13;;;;;;;1.75;0.85;;;;;;;12.36;100.00;101684.28;5032328;28;20303;-78
2022/05/26 05:13:40;;;;;;;0.82;0.57;;;;;;;12.49;100.00;101689.09;5030146;28;20699;-78
2022/05/26 05:16:13;;;;;;;2.85;0.82;;;;;;;12.60;100.00;101694.81;5031278;28;20057;-78
2022/05/26 05:18:39;;;;;;;2.17;0.80;;;;;;;12.78;100.00;101695.00;5016975;28;20037;-77
2022/05/26 05:21:08;;;;;;;3.08;0.95;;;;;;;13.02;100.00;101705.56;5032812;28;22071;-78
2022/05/26 05:23:39;;;;;;;4.57;1.00;;;;;;;13.24;100.00;101701.97;5031483;28;21741;-77
2022/05/26 05:26:08;;;;;;;2.80;0.82;;;;;;;13.43;100.00;101702.03;5013321;28;20572;-78
2022/05/26 05:28:37;;;;;;;4.47;0.80;;;;;;;13.61;100.00;101695.06;5032113;28;20405;-78
2022/05/26 05:31:06;;;;;;;3.55;1.42;;;;;;;13.76;100.00;101703.28;5030612;28;20021;-77
2022/05/26 05:33:46;;;;;;;2.53;1.23;;;;;;;13.89;100.00;101701.78;5016560;28;20051;-76
2022/05/26 05:36:16;;;;;;;1.10;1.00;;;;;;;14.06;100.00;101702.81;5030590;28;20041;-76
2022/05/26 05:38:43;;;;;;;1.77;0.90;;;;;;;14.21;100.00;101701.22;5015555;28;20542;-77
2022/05/26 05:41:09;;;;;;;0.85;0.60;;;;;;;14.35;100.00;101709.44;5033498;28;20039;-77
2022/05/26 05:43:35;;;;;;;2.20;0.60;;;;;;;14.47;100.00;101723.97;5002883;28;20132;-77
2022/05/26 05:46:04;;;;;;;2.17;0.63;;;;;;;14.58;100.00;101717.25;5017670;28;20027;-77
2022/05/26 05:48:30;;;;;;;3.97;0.75;;;;;;;14.70;99.60;101723.81;5018041;28;20740;-76
2022/05/26 05:50:55;;;;;;;1.73;0.60;;;;;;;14.80;99.26;101723.31;5034141;28;20679;-76
2022/05/26 05:53:21;;;;;;;1.05;0.68;;;;;;;14.92;99.16;101727.16;5017430;28;20116;-75
2022/05/26 05:55:47;;;;;;;1.35;0.65;;;;;;;14.89;97.74;101727.31;5032064;28;20033;-76
2022/05/26 05:58:13;;;;;;;2.90;0.60;;;;;;;14.75;96.95;101737.78;5005361;28;20695;-76
2022/05/26 06:00:40;;;;;;;2.20;0.63;;;;;;;14.61;98.10;101736.59;5017171;28;20454;-75
2022/05/26 06:03:05;;;;;;;2.65;0.50;;;;;;;14.60;97.23;101739.38;5016150;28;20116;-76
2022/05/26 06:05:31;;;;;;;3.65;0.90;;;;;;;14.68;97.90;101745.19;5035396;28;20036;-76
2022/05/26 06:07:57;;;;;;;2.08;0.77;;;;;;;14.92;97.09;101744.94;5034495;28;20036;-76
2022/05/26 06:10:23;;;;;;;1.00;0.50;;;;;;;15.00;96.83;101750.78;5034690;28;20037;-75
2022/05/26 06:12:48;;;;;;;2.17;0.60;;;;;;;14.99;95.96;101749.03;5015567;28;20025;-76
2022/05/26 06:15:14;;;;;;;1.08;0.70;;;;;;;14.90;95.67;101752.16;5019119;28;20520;-76
2022/05/26 06:17:39;;;;;;;2.05;0.85;;;;;;;14.84;96.04;101749.78;5016791;28;20060;-75
2022/05/26 06:20:06;;;;;;;2.58;0.75;;;;;;;14.79;95.97;101769.56;5035948;28;20033;-77
2022/05/26 06:22:35;;;;;;;1.98;0.70;;;;;;;14.72;96.33;101762.78;5007890;28;20212;-75
2022/05/26 06:25:02;;;;;;;2.35;0.73;;;;;;;14.66;95.20;101768.41;5033347;28;20048;-76
2022/05/26 06:30:16;;;;;;;1.63;0.60;;;;;;;14.56;95.71;101777.75;5035076;28;21392;-75
2022/05/26 06:38:17;;;;;;;1.05;0.73;;;;;;;14.54;96.03;101777.81;5030470;28;20029;-77
2022/05/26 06:40:43;;;;;;;2.65;0.70;;;;;;;14.58;95.49;101783.84;4992319;28;20035;-77
2022/05/26 06:43:08;;;;;;;1.15;0.70;;;;;;;14.60;95.14;101793.50;5013832;28;20037;-78
2022/05/26 06:45:35;;;;;;;1.88;0.63;;;;;;;14.58;94.89;101792.72;5027978;28;20052;-76
2022/05/26 06:48:00;;;;;;;3.58;0.68;;;;;;;14.57;94.93;101785.69;5032012;28;20037;-76
2022/05/26 06:50:26;;;;;;;2.60;0.80;;;;;;;14.60;94.77;101790.00;5034491;28;20035;-77
2022/05/26 06:52:51;;;;;;;4.32;0.70;;;;;;;14.61;94.29;101783.72;5015397;28;20072;-78
2022/05/26 06:55:17;;;;;;;0.98;0.70;;;;;;;14.58;94.15;101789.19;5033319;28;21075;-76
2022/05/26 06:57:42;;;;;;;2.28;0.60;;;;;;;14.56;93.12;101799.06;5032473;28;20644;-75
2022/05/26 07:00:09;;;;;;;2.60;0.85;;;;;;;14.53;93.47;101795.63;5032165;28;20391;-77
2022/05/26 07:02:35;;;;;;;0.63;0.63;;;;;;;14.52;94.26;101806.34;5029979;28;20127;-76
2022/05/26 07:05:01;;;;;;;2.85;0.57;;;;;;;14.51;93.79;101812.59;5015054;28;20163;-78
2022/05/26 07:07:27;;;;;;;2.47;0.75;;;;;;;14.49;93.34;101818.00;5016797;28;20036;-76
2022/05/26 07:09:54;;;;;;;2.20;0.70;;;;;;;14.45;93.27;101816.44;5016734;28;20059;-76
2022/05/26 07:12:21;;;;;;;2.28;0.70;;;;;;;14.45;93.57;101824.44;5015774;28;20044;-78
2022/05/26 07:14:46;;;;;;;2.08;0.70;;;;;;;14.44;92.56;101817.34;5035015;28;20037;-77
2022/05/26 07:17:12;;;;;;;1.25;0.80;;;;;;;14.43;92.57;101810.28;5008127;28;20114;-76
2022/05/26 07:19:38;;;;;;;1.60;1.27;;;;;;;14.44;92.08;101813.84;5016676;28;20117;-77
2022/05/26 07:22:04;;;;;;;2.83;0.70;;;;;;;14.45;92.51;101819.09;5033890;28;20702;-77
2022/05/26 07:24:30;;;;;;;2.65;0.60;;;;;;;14.47;90.66;101817.22;5034987;28;21492;-76
2022/05/26 07:26:56;;;;;;;1.25;0.70;;;;;;;14.48;92.03;101826.06;5031106;28;20113;-77
2022/05/26 07:29:21;;;;;;;3.17;0.70;;;;;;;14.56;88.51;101831.03;5032394;28;20033;-77
2022/05/26 07:31:47;;;;;;;3.47;0.77;;;;;;;14.71;90.07;101824.13;5000842;28;20025;-76
2022/05/26 07:34:13;;;;;;;1.83;0.80;;;;;;;14.85;90.37;101831.50;5033028;28;20160;-76
2022/05/26 07:42:13;;;;;;;3.42;0.80;;;;;;;14.99;88.61;101839.69;5022846;28;20029;-76
2022/05/26 07:44:42;;;;;;;2.28;0.57;;;;;;;15.06;89.06;101842.94;5020390;28;20047;-76
2022/05/26 07:47:08;;;;;;;1.40;0.50;;;;;;;15.16;88.54;101835.34;5019783;28;20029;-76
2022/05/26 07:49:35;;;;;;;1.08;0.57;;;;;;;15.22;88.73;101843.06;5020520;28;20295;-76
2022/05/26 07:52:01;;;;;;;2.58;0.70;;;;;;;15.27;87.94;101838.34;5022326;28;20037;-76
2022/05/26 07:54:30;;;;;;;2.38;0.70;;;;;;;15.29;87.61;101849.81;5037885;28;21521;-75
2022/05/26 07:56:59;;;;;;;2.70;0.70;;;;;;;15.32;86.78;101852.31;5036415;28;20052;-77
2022/05/26 07:59:25;;;;;;;1.23;0.50;;;;;;;15.34;87.79;101855.78;5036284;28;20041;-76
2022/05/26 08:01:51;;;;;;;0.70;0.50;;;;;;;15.37;87.06;101852.09;4994543;28;20025;-77
2022/05/26 08:04:18;;;;;;;5.63;0.70;;;;;;;15.48;86.64;101854.22;5036190;28;20037;-76
2022/05/26 08:06:47;;;;;;;3.30;0.60;;;;;;;15.65;86.61;101857.84;5034204;28;20116;-76
2022/05/26 08:09:20;;;;;;;2.20;0.80;;;;;;;15.84;85.62;101863.97;5035360;28;20075;-77
2022/05/26 08:11:46;;;;;;;2.30;0.57;;;;;;;15.97;85.96;101855.34;5019302;28;20029;-77
2022/05/26 08:14:12;;;;;;;1.27;0.60;;;;;;;16.04;84.84;101858.56;5019479;28;20044;-76
2022/05/26 08:16:38;;;;;;;2.65;0.60;;;;;;;16.09;84.06;101865.41;5035664;28;20127;-76
2022/05/26 08:19:05;;;;;;;2.28;0.50;;;;;;;16.11;83.79;101863.50;5036206;28;20128;-77
2022/05/26 08:21:31;;;;;;;1.10;0.60;;;;;;;16.15;83.10;101875.75;5019544;28;20047;-77
2022/05/26 08:23:57;;;;;;;1.48;0.60;;;;;;;16.18;82.15;101881.88;5035271;28;20037;-77
2022/05/26 08:26:23;;;;;;;1.13;0.60;;;;;;;16.23;82.88;101874.50;5037374;28;20110;-77
2022/05/26 08:28:49;;;;;;;1.52;0.70;;;;;;;16.32;82.03;101879.34;5037039;28;20043;-76
2022/05/26 08:31:14;;;;;;;1.08;0.50;;;;;;;16.41;82.39;101876.16;5037519;28;20055;-76
2022/05/26 08:33:41;;;;;;;0.73;0.52;;;;;;;16.49;81.43;101880.22;5017793;28;20037;-77
2022/05/26 08:36:10;;;;;;;1.38;0.40;;;;;;;16.50;78.90;101882.81;5033392;28;20035;-77
2022/05/26 08:38:36;;;;;;;1.20;0.50;;;;;;;16.49;79.44;101897.13;5018054;28;20045;-78
2022/05/26 08:41:02;;;;;;;1.27;0.50;;;;;;;16.46;79.60;101893.75;5018438;28;20024;-77
2022/05/26 08:43:38;;;;;;;1.27;0.50;;;;;;;16.34;78.07;101898.81;5009530;28;20029;-76
2022/05/26 08:46:07;;;;;;;1.75;0.60;;;;;;;16.25;77.59;101901.97;5017888;28;20641;-78
2022/05/26 08:48:45;;;;;;;1.13;0.50;;;;;;;16.15;77.51;101891.78;5017505;28;20063;-77
2022/05/26 08:51:19;;;;;;;1.45;0.60;;;;;;;16.16;79.63;101889.97;5036304;28;20084;-77
2022/05/26 08:53:44;;;;;;;2.63;0.63;;;;;;;16.21;78.97;101903.94;5032157;28;20060;-77
2022/05/26 08:56:12;;;;;;;1.23;0.45;;;;;;;16.32;78.67;101898.03;5035224;28;20495;-77
2022/05/26 08:58:47;;;;;;;1.17;0.50;;;;;;;16.44;78.22;101872.47;5001369;28;20352;-75
2022/05/26 09:01:18;;;;;;;1.75;0.57;;;;;;;16.63;77.99;101872.34;5036025;28;20482;-75
2022/05/26 09:03:44;;;;;;;1.45;0.60;;;;;;;16.84;79.08;101874.75;5001345;28;20033;-75
2022/05/26 09:06:16;;;;;;;1.30;0.50;;;;;;;17.03;77.73;101868.41;5035374;28;20634;-76
2022/05/26 09:14:08;;;;;;;0.88;0.50;;;;;;;17.58;72.59;101887.56;5009133;28;20390;-76
2022/05/26 09:16:40;;;;;;;0.93;0.60;;;;;;;17.69;74.96;101876.25;5017214;28;20044;-75
2022/05/26 09:19:30;;;;;;;2.40;0.88;;;;;;;17.87;73.13;101882.31;4997120;28;21566;-76
2022/05/26 09:21:56;;;;;;;4.75;0.80;;;;;;;17.98;75.98;101884.34;5001818;28;20052;-76
2022/05/26 09:24:36;;;;;;;1.40;0.60;;;;;;;18.05;71.86;101883.03;5014674;28;20392;-76
2022/05/26 09:27:05;;;;;;;2.30;0.90;;;;;;;18.10;74.33;101885.44;4997514;28;20908;-76
2022/05/26 09:29:39;;;;;;;1.67;0.80;;;;;;;17.97;74.03;101896.84;4996716;28;20040;-75
2022/05/26 09:32:06;;;;;;;1.30;0.60;;;;;;;17.81;73.89;101896.91;5013591;28;20685;-76
2022/05/26 09:34:34;;;;;;;3.85;0.80;;;;;;;17.67;74.88;101900.44;5012837;28;20025;-77
2022/05/26 09:37:02;;;;;;;1.67;0.60;;;;;;;17.55;74.15;101901.13;5013299;28;20044;-75
2022/05/26 09:39:37;;;;;;;3.88;0.65;;;;;;;17.47;74.44;101897.09;5014066;28;20069;-77
2022/05/26 09:42:06;;;;;;;2.35;0.50;;;;;;;17.43;75.02;101900.03;4981131;28;20065;-75
2022/05/26 09:44:44;;;;;;;1.13;0.60;;;;;;;17.35;73.24;101900.47;5012120;28;20025;-76
2022/05/26 09:47:23;;;;;;;1.10;0.80;;;;;;;17.39;71.90;101902.03;5014213;28;20033;-77
2022/05/26 09:49:52;;;;;;;1.80;0.65;;;;;;;17.23;73.65;101918.09;5012713;28;20045;-77
2022/05/26 09:52:20;;;;;;;2.83;0.77;;;;;;;17.11;73.77;101914.31;4996190;28;20056;-77
2022/05/26 09:54:47;;;;;;;1.00;0.57;;;;;;;17.15;72.54;101910.50;5012542;28;20029;-78
2022/05/26 09:57:16;;;;;;;4.03;0.80;;;;;;;17.23;71.77;101896.69;4996828;28;20112;-76
2022/05/26 09:59:44;;;;;;;1.02;0.60;;;;;;;17.36;73.70;101916.47;5011735;28;20276;-77
2022/05/26 10:02:21;;;;;;;2.40;0.70;;;;;;;17.50;71.11;101907.63;4987668;28;20037;-78
2022/05/26 10:04:55;;;;;;;1.83;0.90;;;;;;;17.59;72.26;101916.09;5012394;28;20129;-77
2022/05/26 10:07:36;;;;;;;2.47;0.68;;;;;;;17.71;73.59;101926.06;5011649;28;20120;-76
2022/05/26 10:10:27;;;;;;;2.38;1.15;;;;;;;17.76;72.97;101926.66;4996169;28;20091;-76
2022/05/26 10:13:18;;;;;;;1.85;0.85;;;;;;;17.72;72.05;101929.59;5011770;28;20488;-78
2022/05/26 10:15:50;;;;;;;1.92;0.70;;;;;;;17.64;73.24;101932.72;4977853;28;20203;-76
2022/05/26 10:18:21;;;;;;;0.60;0.60;;;;;;;17.53;71.40;101932.50;5027494;28;20510;-77
2022/05/26 10:21:02;;;;;;;1.13;0.85;;;;;;;17.36;72.70;101940.53;4999842;28;20049;-79
2022/05/26 10:24:01;;;;;;;3.10;1.10;;;;;;;17.28;72.85;101920.53;5013503;28;20404;-76
2022/05/26 10:26:40;;;;;;;2.25;0.90;;;;;;;17.21;74.73;101920.88;5034329;28;20471;-77
2022/05/26 10:29:18;;;;;;;2.03;1.00;;;;;;;17.17;75.09;101924.66;5032435;28;20040;-76
2022/05/26 10:32:02;;;;;;;3.33;1.33;;;;;;;17.17;75.32;101913.94;5033724;28;20065;-78
2022/05/26 10:34:46;;;;;;;2.00;0.90;;;;;;;17.21;75.42;101909.31;5034012;28;20502;-78
2022/05/26 10:37:32;;;;;;;2.45;1.00;;;;;;;17.28;74.47;101909.81;5034530;28;20040;-77
2022/05/26 10:40:03;;;;;;;1.30;1.00;;;;;;;17.35;74.32;101900.47;5030817;28;20032;-76
2022/05/26 10:42:32;;;;;;;4.60;1.30;;;;;;;17.36;73.71;101918.25;5015530;28;20652;-77
2022/05/26 10:45:12;;;;;;;3.33;1.10;;;;;;;17.38;72.30;101924.41;5033070;28;20041;-79
2022/05/26 10:47:47;;;;;;;4.13;1.20;;;;;;;17.26;74.30;101927.78;5032938;28;20048;-77
2022/05/26 10:50:37;;;;;;;1.75;1.00;;;;;;;17.15;73.97;101920.38;5015554;28;20037;-77
2022/05/26 10:53:10;;;;;;;1.30;0.88;;;;;;;17.17;74.91;101910.44;5031533;28;20029;-77
2022/05/26 10:55:51;;;;;;;1.52;1.10;;;;;;;17.21;75.57;101910.16;5033244;28;20185;-76
2022/05/26 10:58:23;;;;;;;3.00;1.13;;;;;;;17.20;74.83;101924.50;5005469;28;20032;-77
2022/05/26 11:00:52;;;;;;;1.73;1.10;;;;;;;17.22;74.75;101921.75;5031503;28;20083;-77
2022/05/26 11:03:25;;;;;;;1.85;1.10;;;;;;;17.28;74.58;101923.19;5011554;28;20032;-75
2022/05/26 11:05:56;;;;;;;4.05;1.13;;;;;;;17.37;74.96;101917.31;5013264;28;20033;-80
2022/05/26 11:08:28;;;;;;;2.35;1.30;;;;;;;17.36;74.59;101912.91;5030452;28;20033;-77
2022/05/26 11:11:21;;;;;;;2.35;0.98;;;;;;;17.45;74.52;101906.16;5032507;28;20029;-74
2022/05/26 11:14:11;;;;;;;3.75;1.10;;;;;;;17.51;73.75;101919.19;5010991;28;20850;-77
2022/05/26 11:19:37;;;;;;;1.08;0.82;;;;;;;17.44;74.73;101907.97;5028208;28;20312;-77
2022/05/26 11:22:04;;;;;;;2.85;1.20;;;;;;;17.44;74.61;101899.09;5035291;28;20050;-75
2022/05/26 11:24:30;;;;;;;2.75;1.10;;;;;;;17.47;75.86;101910.47;4991532;28;20028;-75
2022/05/26 11:27:08;;;;;;;2.10;1.10;;;;;;;17.46;73.04;101914.13;5026143;28;20040;-75
2022/05/26 11:29:40;;;;;;;1.60;0.98;;;;;;;17.44;74.68;101907.13;5033709;28;20040;-76
2022/05/26 11:38:40;;;;;;;1.67;1.00;;;;;;;17.50;75.07;101912.97;5036614;28;20045;-76
2022/05/26 11:41:12;;;;;;;3.35;1.50;;;;;;;17.45;74.51;101917.75;5034634;28;20044;-76
2022/05/26 11:43:56;;;;;;;;;;;;;;;17.44;75.23;101917.84;5034858;28;20044;-75
2022/05/26 11:46:46;;;;;;;2.28;1.02;;;;;;;17.47;75.47;101915.84;5018511;28;19924;-77
2022/05/26 11:49:44;;;;;;;1.33;0.90;;;;;;;17.49;72.70;101916.59;5034958;28;20036;-78
2022/05/26 11:52:26;;;;;;;2.65;1.50;;;;;;;17.50;74.31;101918.31;5036331;28;20629;-76
2022/05/26 11:55:04;;;;;;;3.25;1.13;;;;;;;17.50;75.79;101923.69;5007798;28;20029;-76
2022/05/26 11:57:35;;;;;;;2.97;1.10;;;;;;;17.68;76.12;101923.56;5035147;28;20037;-77
2022/05/26 12:00:35;;;;;;;0.82;0.70;;;;;;;17.85;76.68;101919.91;5017996;28;20053;-77
2022/05/26 12:03:20;;;;;;;2.33;1.10;;;;;;;17.98;72.17;101922.69;5034528;28;20298;-76
2022/05/26 12:05:48;;;;;;;2.47;1.25;;;;;;;17.92;74.28;101923.94;5035863;28;20028;-78
2022/05/26 12:08:28;;;;;;;2.67;1.13;;;;;;;17.85;74.99;101911.84;5032264;28;20552;-76
2022/05/26 12:11:00;;;;;;;1.80;1.10;;;;;;;17.74;74.69;101912.50;5016794;28;20041;-77
2022/05/26 12:13:28;;;;;;;2.95;1.02;;;;;;;17.54;74.52;101920.84;5032996;28;20487;-76
2022/05/26 12:16:11;;;;;;;3.50;1.30;;;;;;;17.38;74.44;101917.22;5032515;28;20052;-76